sensor_id;sensor_type;location;lat;lon;timestamp;temperature;humidity
30865;DHT22;17574;49.418;11.038;2023-05-10T00:01:08;16.40;34.00
30865;DHT22;17574;49.418;11.038;2023-05-10T00:03:35;16.40;33.90
30865;DHT22;17574;49.418;11.038;2023-05-10T00:06:02;16.40;34.60
30865;DHT22;17574;49.418;11.038;2023-05-10T00:08:28;16.40;34.00
30865;DHT22;17574;49.418;11.038;2023-05-10T00:10:55;16.40;36.40
30865;DHT22;17574;49.418;11.038;2023-05-10T00:13:22;16.40;37.90
30865;DHT22;17574;49.418;11.038;2023-05-10T00:15:48;16.40;39.60
30865;DHT22;17574;49.418;11.038;2023-05-10T00:18:15;16.40;44.80
30865;DHT22;17574;49.418;11.038;2023-05-10T00:20:41;16.30;46.70
30865;DHT22;17574;49.418;11.038;2023-05-10T00:23:08;16.30;47.50
30865;DHT22;17574;49.418;11.038;2023-05-10T00:25:35;16.30;48.00
30865;DHT22;17574;49.418;11.038;2023-05-10T00:28:01;16.20;52.90
30865;DHT22;17574;49.418;11.038;2023-05-10T00:30:28;16.20;55.80
30865;DHT22;17574;49.418;11.038;2023-05-10T00:32:54;16.10;60.00
30865;DHT22;17574;49.418;11.038;2023-05-10T00:35:21;16.10;63.90
30865;DHT22;17574;49.418;11.038;2023-05-10T00:37:48;16.10;65.40
30865;DHT22;17574;49.418;11.038;2023-05-10T00:40:15;16.10;65.40
30865;DHT22;17574;49.418;11.038;2023-05-10T00:42:41;16.00;67.10
30865;DHT22;17574;49.418;11.038;2023-05-10T00:45:08;16.00;67.20
30865;DHT22;17574;49.418;11.038;2023-05-10T00:47:35;15.90;70.10
30865;DHT22;17574;49.418;11.038;2023-05-10T00:50:02;15.90;74.00
30865;DHT22;17574;49.418;11.038;2023-05-10T00:52:30;15.80;73.90
30865;DHT22;17574;49.418;11.038;2023-05-10T00:54:57;15.80;73.60
30865;DHT22;17574;49.418;11.038;2023-05-10T00:57:23;15.80;73.90
30865;DHT22;17574;49.418;11.038;2023-05-10T00:59:50;15.80;76.30
30865;DHT22;17574;49.418;11.038;2023-05-10T01:02:17;15.80;76.80
30865;DHT22;17574;49.418;11.038;2023-05-10T01:04:43;15.80;77.60
30865;DHT22;17574;49.418;11.038;2023-05-10T01:07:10;15.80;77.80
30865;DHT22;17574;49.418;11.038;2023-05-10T01:09:37;15.70;78.40
30865;DHT22;17574;49.418;11.038;2023-05-10T01:12:04;15.70;79.50
30865;DHT22;17574;49.418;11.038;2023-05-10T01:14:33;15.70;80.40
30865;DHT22;17574;49.418;11.038;2023-05-10T01:17:00;15.60;82.10
30865;DHT22;17574;49.418;11.038;2023-05-10T01:19:28;15.60;82.20
30865;DHT22;17574;49.418;11.038;2023-05-10T01:22:05;15.60;82.20
30865;DHT22;17574;49.418;11.038;2023-05-10T01:32:57;15.50;85.70
30865;DHT22;17574;49.418;11.038;2023-05-10T01:35:37;15.50;88.00
30865;DHT22;17574;49.418;11.038;2023-05-10T01:38:16;15.40;88.40
30865;DHT22;17574;49.418;11.038;2023-05-10T01:43:24;15.40;90.00
30865;DHT22;17574;49.418;11.038;2023-05-10T01:46:08;15.40;90.10
30865;DHT22;17574;49.418;11.038;2023-05-10T01:48:40;15.40;90.10
30865;DHT22;17574;49.418;11.038;2023-05-10T01:51:13;15.40;90.60
30865;DHT22;17574;49.418;11.038;2023-05-10T01:53:41;15.40;91.10
30865;DHT22;17574;49.418;11.038;2023-05-10T01:56:08;15.40;91.50
30865;DHT22;17574;49.418;11.038;2023-05-10T01:58:36;15.40;91.80
30865;DHT22;17574;49.418;11.038;2023-05-10T02:01:03;15.30;91.40
30865;DHT22;17574;49.418;11.038;2023-05-10T02:03:30;15.30;91.10
30865;DHT22;17574;49.418;11.038;2023-05-10T02:05:57;15.30;91.40
30865;DHT22;17574;49.418;11.038;2023-05-10T02:08:24;15.30;91.50
30865;DHT22;17574;49.418;11.038;2023-05-10T02:10:53;15.30;91.40
30865;DHT22;17574;49.418;11.038;2023-05-10T02:13:21;15.30;91.70
30865;DHT22;17574;49.418;11.038;2023-05-10T02:15:49;15.30;91.80
30865;DHT22;17574;49.418;11.038;2023-05-10T02:18:17;15.30;92.50
30865;DHT22;17574;49.418;11.038;2023-05-10T02:20:45;15.30;92.70
30865;DHT22;17574;49.418;11.038;2023-05-10T02:23:12;15.30;92.70
30865;DHT22;17574;49.418;11.038;2023-05-10T02:25:40;15.30;93.10
30865;DHT22;17574;49.418;11.038;2023-05-10T02:28:07;15.30;93.50
30865;DHT22;17574;49.418;11.038;2023-05-10T02:30:35;15.30;93.60
30865;DHT22;17574;49.418;11.038;2023-05-10T02:33:02;15.30;93.60
30865;DHT22;17574;49.418;11.038;2023-05-10T02:35:30;15.30;93.60
30865;DHT22;17574;49.418;11.038;2023-05-10T02:37:57;15.30;93.40
30865;DHT22;17574;49.418;11.038;2023-05-10T02:40:25;15.30;92.80
30865;DHT22;17574;49.418;11.038;2023-05-10T02:42:55;15.30;92.70
30865;DHT22;17574;49.418;11.038;2023-05-10T02:45:23;15.30;93.00
30865;DHT22;17574;49.418;11.038;2023-05-10T02:47:51;15.30;93.10
30865;DHT22;17574;49.418;11.038;2023-05-10T02:50:18;15.30;93.60
30865;DHT22;17574;49.418;11.038;2023-05-10T02:52:50;15.30;93.60
30865;DHT22;17574;49.418;11.038;2023-05-10T02:55:19;15.30;93.60
30865;DHT22;17574;49.418;11.038;2023-05-10T02:57:48;15.30;93.80
30865;DHT22;17574;49.418;11.038;2023-05-10T03:00:16;15.30;93.60
30865;DHT22;17574;49.418;11.038;2023-05-10T03:02:43;15.20;93.30
30865;DHT22;17574;49.418;11.038;2023-05-10T03:05:09;15.20;91.90
30865;DHT22;17574;49.418;11.038;2023-05-10T03:07:36;15.20;91.70
30865;DHT22;17574;49.418;11.038;2023-05-10T03:10:03;15.20;92.10
30865;DHT22;17574;49.418;11.038;2023-05-10T03:18:10;15.20;91.90
30865;DHT22;17574;49.418;11.038;2023-05-10T03:20:41;15.20;92.20
30865;DHT22;17574;49.418;11.038;2023-05-10T03:23:12;15.20;91.80
30865;DHT22;17574;49.418;11.038;2023-05-10T03:25:39;15.10;90.80
30865;DHT22;17574;49.418;11.038;2023-05-10T03:28:07;15.10;90.90
30865;DHT22;17574;49.418;11.038;2023-05-10T03:30:34;15.10;91.40
30865;DHT22;17574;49.418;11.038;2023-05-10T03:33:05;15.00;91.60
30865;DHT22;17574;49.418;11.038;2023-05-10T03:35:33;15.00;92.10
30865;DHT22;17574;49.418;11.038;2023-05-10T03:38:00;15.00;93.10
30865;DHT22;17574;49.418;11.038;2023-05-10T03:40:27;15.00;93.50
30865;DHT22;17574;49.418;11.038;2023-05-10T03:42:58;14.90;93.30
30865;DHT22;17574;49.418;11.038;2023-05-10T03:45:25;14.90;93.50
30865;DHT22;17574;49.418;11.038;2023-05-10T03:47:52;14.90;93.50
30865;DHT22;17574;49.418;11.038;2023-05-10T03:50:18;14.90;93.50
30865;DHT22;17574;49.418;11.038;2023-05-10T03:52:45;14.90;93.60
30865;DHT22;17574;49.418;11.038;2023-05-10T03:55:12;14.90;93.50
30865;DHT22;17574;49.418;11.038;2023-05-10T03:57:38;14.90;93.50
30865;DHT22;17574;49.418;11.038;2023-05-10T04:00:05;14.80;93.60
30865;DHT22;17574;49.418;11.038;2023-05-10T04:02:32;14.90;93.50
30865;DHT22;17574;49.418;11.038;2023-05-10T04:04:59;14.90;93.50
30865;DHT22;17574;49.418;11.038;2023-05-10T04:07:25;14.90;93.50
30865;DHT22;17574;49.418;11.038;2023-05-10T04:09:52;14.40;93.30
30865;DHT22;17574;49.418;11.038;2023-05-10T04:12:18;14.90;93.50
30865;DHT22;17574;49.418;11.038;2023-05-10T04:14:45;14.90;93.50
30865;DHT22;17574;49.418;11.038;2023-05-10T04:17:12;14.90;93.50
30865;DHT22;17574;49.418;11.038;2023-05-10T04:19:38;14.80;93.40
30865;DHT22;17574;49.418;11.038;2023-05-10T04:22:05;14.80;93.40
30865;DHT22;17574;49.418;11.038;2023-05-10T04:24:32;14.80;92.30
30865;DHT22;17574;49.418;11.038;2023-05-10T04:26:58;14.90;92.30
30865;DHT22;17574;49.418;11.038;2023-05-10T04:29:25;14.90;92.40
30865;DHT22;17574;49.418;11.038;2023-05-10T04:31:53;14.90;91.80
30865;DHT22;17574;49.418;11.038;2023-05-10T04:34:20;14.90;91.10
30865;DHT22;17574;49.418;11.038;2023-05-10T04:36:47;14.90;90.00
30865;DHT22;17574;49.418;11.038;2023-05-10T04:39:14;14.90;89.80
30865;DHT22;17574;49.418;11.038;2023-05-10T04:41:41;14.90;89.90
30865;DHT22;17574;49.418;11.038;2023-05-10T04:44:09;14.90;90.60
30865;DHT22;17574;49.418;11.038;2023-05-10T04:46:37;14.90;89.80
30865;DHT22;17574;49.418;11.038;2023-05-10T04:49:04;14.90;89.80
30865;DHT22;17574;49.418;11.038;2023-05-10T04:51:30;14.90;89.80
30865;DHT22;17574;49.418;11.038;2023-05-10T04:53:58;15.00;89.80
30865;DHT22;17574;49.418;11.038;2023-05-10T04:56:32;15.00;90.00
30865;DHT22;17574;49.418;11.038;2023-05-10T04:58:59;15.10;89.00
30865;DHT22;17574;49.418;11.038;2023-05-10T05:01:25;15.10;88.30
30865;DHT22;17574;49.418;11.038;2023-05-10T05:03:52;15.20;85.40
30865;DHT22;17574;49.418;11.038;2023-05-10T05:06:19;15.20;81.80
30865;DHT22;17574;49.418;11.038;2023-05-10T05:08:47;15.20;81.80
30865;DHT22;17574;49.418;11.038;2023-05-10T05:11:16;15.20;81.20
30865;DHT22;17574;49.418;11.038;2023-05-10T05:13:43;15.20;79.30
30865;DHT22;17574;49.418;11.038;2023-05-10T05:16:09;15.30;76.20
30865;DHT22;17574;49.418;11.038;2023-05-10T05:18:38;15.20;75.30
30865;DHT22;17574;49.418;11.038;2023-05-10T05:21:14;15.30;75.00
30865;DHT22;17574;49.418;11.038;2023-05-10T05:23:41;15.30;73.50
30865;DHT22;17574;49.418;11.038;2023-05-10T05:26:08;15.40;72.00
30865;DHT22;17574;49.418;11.038;2023-05-10T05:28:35;15.40;70.90
30865;DHT22;17574;49.418;11.038;2023-05-10T05:31:06;15.40;69.60
30865;DHT22;17574;49.418;11.038;2023-05-10T05:33:36;15.70;65.00
30865;DHT22;17574;49.418;11.038;2023-05-10T05:36:03;15.70;65.00
30865;DHT22;17574;49.418;11.038;2023-05-10T05:38:30;15.70;65.00
30865;DHT22;17574;49.418;11.038;2023-05-10T05:40:57;15.60;63.60
30865;DHT22;17574;49.418;11.038;2023-05-10T05:43:24;15.60;65.00
30865;DHT22;17574;49.418;11.038;2023-05-10T05:45:53;15.70;64.20
30865;DHT22;17574;49.418;11.038;2023-05-10T05:48:20;15.60;61.60
30865;DHT22;17574;49.418;11.038;2023-05-10T05:50:47;15.80;62.70
30865;DHT22;17574;49.418;11.038;2023-05-10T05:53:14;15.80;62.00
30865;DHT22;17574;49.418;11.038;2023-05-10T05:55:45;15.90;58.10
30865;DHT22;17574;49.418;11.038;2023-05-10T05:58:16;17.00;36.30
30865;DHT22;17574;49.418;11.038;2023-05-10T06:00:43;17.90;26.40
30865;DHT22;17574;49.418;11.038;2023-05-10T06:03:10;17.50;30.50
30865;DHT22;17574;49.418;11.038;2023-05-10T06:05:37;17.20;34.70
30865;DHT22;17574;49.418;11.038;2023-05-10T06:08:03;16.90;36.80
30865;DHT22;17574;49.418;11.038;2023-05-10T06:10:30;16.70;40.40
30865;DHT22;17574;49.418;11.038;2023-05-10T06:12:57;16.50;47.20
30865;DHT22;17574;49.418;11.038;2023-05-10T06:15:23;16.40;49.20
30865;DHT22;17574;49.418;11.038;2023-05-10T06:17:50;16.40;45.20
30865;DHT22;17574;49.418;11.038;2023-05-10T06:20:17;16.50;45.30
30865;DHT22;17574;49.418;11.038;2023-05-10T06:22:44;16.50;45.90
30865;DHT22;17574;49.418;11.038;2023-05-10T06:25:10;16.90;45.70
30865;DHT22;17574;49.418;11.038;2023-05-10T06:27:37;16.70;43.50
30865;DHT22;17574;49.418;11.038;2023-05-10T06:30:04;16.80;44.80
30865;DHT22;17574;49.418;11.038;2023-05-10T06:32:39;16.90;44.20
30865;DHT22;17574;49.418;11.038;2023-05-10T06:35:05;17.10;41.00
30865;DHT22;17574;49.418;11.038;2023-05-10T06:37:32;17.20;42.80
30865;DHT22;17574;49.418;11.038;2023-05-10T06:39:59;17.30;38.50
30865;DHT22;17574;49.418;11.038;2023-05-10T06:42:25;17.50;35.00
30865;DHT22;17574;49.418;11.038;2023-05-10T06:44:53;17.60;37.90
30865;DHT22;17574;49.418;11.038;2023-05-10T06:47:20;17.80;35.30
30865;DHT22;17574;49.418;11.038;2023-05-10T06:49:46;17.90;29.80
30865;DHT22;17574;49.418;11.038;2023-05-10T06:52:13;18.00;28.10
30865;DHT22;17574;49.418;11.038;2023-05-10T06:54:39;18.10;26.70
30865;DHT22;17574;49.418;11.038;2023-05-10T06:57:06;18.20;28.60
30865;DHT22;17574;49.418;11.038;2023-05-10T06:59:45;18.40;25.60
30865;DHT22;17574;49.418;11.038;2023-05-10T07:02:11;18.40;21.00
30865;DHT22;17574;49.418;11.038;2023-05-10T07:04:38;18.50;19.10
30865;DHT22;17574;49.418;11.038;2023-05-10T07:07:05;18.50;18.30
30865;DHT22;17574;49.418;11.038;2023-05-10T07:09:32;18.50;16.30
30865;DHT22;17574;49.418;11.038;2023-05-10T07:11:59;18.40;16.20
30865;DHT22;17574;49.418;11.038;2023-05-10T07:14:26;18.50;14.20
30865;DHT22;17574;49.418;11.038;2023-05-10T07:16:52;18.50;16.30
30865;DHT22;17574;49.418;11.038;2023-05-10T07:19:19;18.50;13.40
30865;DHT22;17574;49.418;11.038;2023-05-10T07:21:46;18.50;13.70
30865;DHT22;17574;49.418;11.038;2023-05-10T07:24:12;18.40;13.20
30865;DHT22;17574;49.418;11.038;2023-05-10T07:26:40;18.70;15.20
30865;DHT22;17574;49.418;11.038;2023-05-10T07:29:06;18.50;11.50
30865;DHT22;17574;49.418;11.038;2023-05-10T07:31:33;18.30;12.20
30865;DHT22;17574;49.418;11.038;2023-05-10T07:33:59;18.20;15.00
30865;DHT22;17574;49.418;11.038;2023-05-10T07:36:26;18.20;16.10
30865;DHT22;17574;49.418;11.038;2023-05-10T07:38:53;18.30;16.20
30865;DHT22;17574;49.418;11.038;2023-05-10T07:41:19;18.40;14.40
30865;DHT22;17574;49.418;11.038;2023-05-10T07:43:47;18.30;16.20
30865;DHT22;17574;49.418;11.038;2023-05-10T07:46:14;18.20;16.10
30865;DHT22;17574;49.418;11.038;2023-05-10T07:48:40;18.30;16.20
30865;DHT22;17574;49.418;11.038;2023-05-10T07:51:07;18.20;16.10
30865;DHT22;17574;49.418;11.038;2023-05-10T07:53:35;18.10;16.00
30865;DHT22;17574;49.418;11.038;2023-05-10T07:56:19;18.10;16.00
30865;DHT22;17574;49.418;11.038;2023-05-10T07:58:46;17.90;15.90
30865;DHT22;17574;49.418;11.038;2023-05-10T08:01:13;17.80;19.20
30865;DHT22;17574;49.418;11.038;2023-05-10T08:03:39;17.90;20.60
30865;DHT22;17574;49.418;11.038;2023-05-10T08:06:06;18.00;19.10
30865;DHT22;17574;49.418;11.038;2023-05-10T08:08:33;18.20;19.20
30865;DHT22;17574;49.418;11.038;2023-05-10T08:10:59;18.30;18.50
30865;DHT22;17574;49.418;11.038;2023-05-10T08:13:26;18.50;16.30
30865;DHT22;17574;49.418;11.038;2023-05-10T08:15:52;18.60;16.40
30865;DHT22;17574;49.418;11.038;2023-05-10T08:18:19;18.90;13.20
30865;DHT22;17574;49.418;11.038;2023-05-10T08:20:47;19.00;9.70
30865;DHT22;17574;49.418;11.038;2023-05-10T08:23:14;19.10;7.00
30865;DHT22;17574;49.418;11.038;2023-05-10T08:25:41;19.10;9.40
30865;DHT22;17574;49.418;11.038;2023-05-10T08:28:07;19.40;9.00
30865;DHT22;17574;49.418;11.038;2023-05-10T08:30:36;19.60;7.10
30865;DHT22;17574;49.418;11.038;2023-05-10T08:33:02;19.80;7.60
30865;DHT22;17574;49.418;11.038;2023-05-10T08:35:29;20.10;4.80
30865;DHT22;17574;49.418;11.038;2023-05-10T08:37:56;20.50;3.10
30865;DHT22;17574;49.418;11.038;2023-05-10T08:40:22;21.30;1.00
30865;DHT22;17574;49.418;11.038;2023-05-10T08:42:51;22.00;1.00
30865;DHT22;17574;49.418;11.038;2023-05-10T08:45:21;22.20;1.00
30865;DHT22;17574;49.418;11.038;2023-05-10T08:47:49;22.20;1.00
30865;DHT22;17574;49.418;11.038;2023-05-10T08:50:16;21.80;1.00
30865;DHT22;17574;49.418;11.038;2023-05-10T08:52:43;21.60;1.00
30865;DHT22;17574;49.418;11.038;2023-05-10T08:55:11;21.30;1.00
30865;DHT22;17574;49.418;11.038;2023-05-10T08:57:38;20.80;1.00
30865;DHT22;17574;49.418;11.038;2023-05-10T09:00:05;20.30;1.00
30865;DHT22;17574;49.418;11.038;2023-05-10T09:02:32;19.90;3.70
30865;DHT22;17574;49.418;11.038;2023-05-10T09:04:59;19.50;7.40
30865;DHT22;17574;49.418;11.038;2023-05-10T09:07:25;19.10;12.00
30865;DHT22;17574;49.418;11.038;2023-05-10T09:09:52;18.80;17.10
30865;DHT22;17574;49.418;11.038;2023-05-10T09:12:19;18.60;21.10
30865;DHT22;17574;49.418;11.038;2023-05-10T09:14:46;18.60;22.70
30865;DHT22;17574;49.418;11.038;2023-05-10T09:17:12;18.50;25.70
30865;DHT22;17574;49.418;11.038;2023-05-10T09:19:39;18.60;27.30
30865;DHT22;17574;49.418;11.038;2023-05-10T09:22:06;18.60;25.80
30865;DHT22;17574;49.418;11.038;2023-05-10T09:24:32;18.60;22.70
30865;DHT22;17574;49.418;11.038;2023-05-10T09:26:59;19.00;23.80
30865;DHT22;17574;49.418;11.038;2023-05-10T09:29:38;19.80;16.90
30865;DHT22;17574;49.418;11.038;2023-05-10T09:32:05;20.40;11.30
30865;DHT22;17574;49.418;11.038;2023-05-10T09:34:32;20.80;8.30
30865;DHT22;17574;49.418;11.038;2023-05-10T09:37:00;21.70;1.90
30865;DHT22;17574;49.418;11.038;2023-05-10T09:39:31;22.60;1.00
30865;DHT22;17574;49.418;11.038;2023-05-10T09:42:08;23.70;1.00
30865;DHT22;17574;49.418;11.038;2023-05-10T09:44:35;24.20;1.00
30865;DHT22;17574;49.418;11.038;2023-05-10T09:47:02;24.20;1.00
30865;DHT22;17574;49.418;11.038;2023-05-10T09:49:29;23.90;1.00
30865;DHT22;17574;49.418;11.038;2023-05-10T09:52:00;23.50;1.00
30865;DHT22;17574;49.418;11.038;2023-05-10T09:54:27;23.10;1.00
30865;DHT22;17574;49.418;11.038;2023-05-10T09:56:53;23.60;1.00
30865;DHT22;17574;49.418;11.038;2023-05-10T09:59:20;24.60;1.00
30865;DHT22;17574;49.418;11.038;2023-05-10T10:01:50;25.30;1.00
30865;DHT22;17574;49.418;11.038;2023-05-10T10:04:17;25.10;1.00
30865;DHT22;17574;49.418;11.038;2023-05-10T10:06:44;24.30;1.00
30865;DHT22;17574;49.418;11.038;2023-05-10T10:09:11;23.80;1.00
30865;DHT22;17574;49.418;11.038;2023-05-10T10:11:38;23.10;1.00
30865;DHT22;17574;49.418;11.038;2023-05-10T10:14:05;22.80;1.00
30865;DHT22;17574;49.418;11.038;2023-05-10T10:16:32;22.30;1.00
30865;DHT22;17574;49.418;11.038;2023-05-10T10:18:59;22.90;1.00
30865;DHT22;17574;49.418;11.038;2023-05-10T10:21:25;23.50;1.00
30865;DHT22;17574;49.418;11.038;2023-05-10T10:23:53;23.80;1.00
30865;DHT22;17574;49.418;11.038;2023-05-10T10:26:19;24.00;1.00
30865;DHT22;17574;49.418;11.038;2023-05-10T10:29:00;23.90;1.00
30865;DHT22;17574;49.418;11.038;2023-05-10T10:31:35;23.90;1.00
30865;DHT22;17574;49.418;11.038;2023-05-10T10:34:06;24.00;1.00
30865;DHT22;17574;49.418;11.038;2023-05-10T10:36:42;23.80;1.00
30865;DHT22;17574;49.418;11.038;2023-05-10T10:39:10;23.80;1.00
30865;DHT22;17574;49.418;11.038;2023-05-10T10:41:38;23.50;1.00
30865;DHT22;17574;49.418;11.038;2023-05-10T10:44:23;23.10;1.00
30865;DHT22;17574;49.418;11.038;2023-05-10T10:49:32;22.80;1.00
30865;DHT22;17574;49.418;11.038;2023-05-10T10:52:15;22.70;1.00
30865;DHT22;17574;49.418;11.038;2023-05-10T10:54:49;22.60;1.00
30865;DHT22;17574;49.418;11.038;2023-05-10T10:57:17;22.50;1.00
30865;DHT22;17574;49.418;11.038;2023-05-10T10:59:44;22.40;1.00
30865;DHT22;17574;49.418;11.038;2023-05-10T11:02:32;22.20;1.00
30865;DHT22;17574;49.418;11.038;2023-05-10T11:04:59;22.20;1.00
30865;DHT22;17574;49.418;11.038;2023-05-10T11:07:25;22.10;1.00
30865;DHT22;17574;49.418;11.038;2023-05-10T11:09:52;22.10;1.00
30865;DHT22;17574;49.418;11.038;2023-05-10T11:12:20;22.00;1.00
30865;DHT22;17574;49.418;11.038;2023-05-10T11:14:57;22.00;1.00
30865;DHT22;17574;49.418;11.038;2023-05-10T11:17:26;21.90;1.00
30865;DHT22;17574;49.418;11.038;2023-05-10T11:20:09;21.80;1.00
30865;DHT22;17574;49.418;11.038;2023-05-10T11:22:49;21.70;1.00
30865;DHT22;17574;49.418;11.038;2023-05-10T11:25:17;21.90;1.00
30865;DHT22;17574;49.418;11.038;2023-05-10T11:27:44;22.10;1.00
30865;DHT22;17574;49.418;11.038;2023-05-10T11:30:11;22.50;1.00
30865;DHT22;17574;49.418;11.038;2023-05-10T11:32:38;22.60;1.00
30865;DHT22;17574;49.418;11.038;2023-05-10T11:35:11;22.50;1.00
30865;DHT22;17574;49.418;11.038;2023-05-10T11:37:38;22.50;1.00
30865;DHT22;17574;49.418;11.038;2023-05-10T11:40:08;22.30;1.00
30865;DHT22;17574;49.418;11.038;2023-05-10T11:42:39;22.10;1.00
30865;DHT22;17574;49.418;11.038;2023-05-10T11:45:06;22.00;1.00
30865;DHT22;17574;49.418;11.038;2023-05-10T11:47:32;21.80;1.00
30865;DHT22;17574;49.418;11.038;2023-05-10T11:50:02;21.60;1.00
30865;DHT22;17574;49.418;11.038;2023-05-10T11:52:28;21.40;1.00
30865;DHT22;17574;49.418;11.038;2023-05-10T11:54:55;21.70;1.00
30865;DHT22;17574;49.418;11.038;2023-05-10T11:57:26;21.00;1.00
30865;DHT22;17574;49.418;11.038;2023-05-10T11:59:53;20.80;1.00
30865;DHT22;17574;49.418;11.038;2023-05-10T12:02:20;20.70;1.00
30865;DHT22;17574;49.418;11.038;2023-05-10T12:04:47;20.60;1.00
30865;DHT22;17574;49.418;11.038;2023-05-10T12:07:14;20.60;1.00
30865;DHT22;17574;49.418;11.038;2023-05-10T12:09:44;20.50;1.00
30865;DHT22;17574;49.418;11.038;2023-05-10T12:12:17;20.50;1.00
30865;DHT22;17574;49.418;11.038;2023-05-10T12:14:43;20.50;1.00
30865;DHT22;17574;49.418;11.038;2023-05-10T12:17:13;20.40;1.00
30865;DHT22;17574;49.418;11.038;2023-05-10T12:19:40;20.50;1.00
30865;DHT22;17574;49.418;11.038;2023-05-10T12:22:07;20.60;1.00
30865;DHT22;17574;49.418;11.038;2023-05-10T12:24:34;20.70;1.00
30865;DHT22;17574;49.418;11.038;2023-05-10T12:27:04;20.90;1.00
30865;DHT22;17574;49.418;11.038;2023-05-10T12:29:31;20.90;1.00
30865;DHT22;17574;49.418;11.038;2023-05-10T12:31:58;21.20;1.00
30865;DHT22;17574;49.418;11.038;2023-05-10T12:34:33;21.30;1.00
30865;DHT22;17574;49.418;11.038;2023-05-10T12:37:00;21.50;1.00
30865;DHT22;17574;49.418;11.038;2023-05-10T12:39:38;21.60;1.00
30865;DHT22;17574;49.418;11.038;2023-05-10T12:42:04;21.70;1.00
30865;DHT22;17574;49.418;11.038;2023-05-10T12:44:31;21.70;1.00
30865;DHT22;17574;49.418;11.038;2023-05-10T12:46:57;21.70;1.00
30865;DHT22;17574;49.418;11.038;2023-05-10T12:49:24;21.70;1.00
30865;DHT22;17574;49.418;11.038;2023-05-10T12:51:51;21.50;1.00
30865;DHT22;17574;49.418;11.038;2023-05-10T12:54:17;21.40;1.00
30865;DHT22;17574;49.418;11.038;2023-05-10T12:56:44;21.40;1.00
30865;DHT22;17574;49.418;11.038;2023-05-10T12:59:11;21.30;1.00
30865;DHT22;17574;49.418;11.038;2023-05-10T13:01:37;21.20;1.00
30865;DHT22;17574;49.418;11.038;2023-05-10T13:04:04;21.20;1.00
30865;DHT22;17574;49.418;11.038;2023-05-10T13:06:31;21.10;1.00
30865;DHT22;17574;49.418;11.038;2023-05-10T13:08:58;20.90;1.00
30865;DHT22;17574;49.418;11.038;2023-05-10T13:11:24;20.90;1.00
30865;DHT22;17574;49.418;11.038;2023-05-10T13:13:51;20.90;1.00
30865;DHT22;17574;49.418;11.038;2023-05-10T13:16:18;20.90;1.00
30865;DHT22;17574;49.418;11.038;2023-05-10T13:18:44;21.00;1.00
30865;DHT22;17574;49.418;11.038;2023-05-10T13:21:11;20.90;1.00
30865;DHT22;17574;49.418;11.038;2023-05-10T13:23:38;21.10;1.00
30865;DHT22;17574;49.418;11.038;2023-05-10T13:26:04;21.10;1.00
30865;DHT22;17574;49.418;11.038;2023-05-10T13:28:31;21.20;1.00
30865;DHT22;17574;49.418;11.038;2023-05-10T13:30:58;21.20;1.00
30865;DHT22;17574;49.418;11.038;2023-05-10T13:33:26;21.40;1.00
30865;DHT22;17574;49.418;11.038;2023-05-10T13:35:53;21.60;1.00
30865;DHT22;17574;49.418;11.038;2023-05-10T13:38:21;21.70;1.00
30865;DHT22;17574;49.418;11.038;2023-05-10T13:40:48;21.80;1.00
30865;DHT22;17574;49.418;11.038;2023-05-10T13:43:19;21.80;1.00
30865;DHT22;17574;49.418;11.038;2023-05-10T13:45:46;21.90;1.00
30865;DHT22;17574;49.418;11.038;2023-05-10T13:48:12;21.90;1.00
30865;DHT22;17574;49.418;11.038;2023-05-10T13:50:39;21.80;1.00
30865;DHT22;17574;49.418;11.038;2023-05-10T13:53:06;21.90;1.00
30865;DHT22;17574;49.418;11.038;2023-05-10T13:55:33;21.90;1.00
30865;DHT22;17574;49.418;11.038;2023-05-10T13:58:00;22.00;1.00
30865;DHT22;17574;49.418;11.038;2023-05-10T14:00:26;21.90;1.00
30865;DHT22;17574;49.418;11.038;2023-05-10T14:02:53;21.90;1.00
30865;DHT22;17574;49.418;11.038;2023-05-10T14:05:20;22.00;1.00
30865;DHT22;17574;49.418;11.038;2023-05-10T14:07:51;21.90;1.00
30865;DHT22;17574;49.418;11.038;2023-05-10T14:10:18;21.90;1.00
30865;DHT22;17574;49.418;11.038;2023-05-10T14:12:44;21.80;1.00
30865;DHT22;17574;49.418;11.038;2023-05-10T14:15:11;21.90;1.00
30865;DHT22;17574;49.418;11.038;2023-05-10T14:17:38;22.00;1.00
30865;DHT22;17574;49.418;11.038;2023-05-10T14:20:05;22.00;1.00
30865;DHT22;17574;49.418;11.038;2023-05-10T14:22:31;21.90;1.00
30865;DHT22;17574;49.418;11.038;2023-05-10T14:24:58;22.00;1.00
30865;DHT22;17574;49.418;11.038;2023-05-10T14:27:25;22.10;1.00
30865;DHT22;17574;49.418;11.038;2023-05-10T14:29:52;22.10;1.00
30865;DHT22;17574;49.418;11.038;2023-05-10T14:32:19;22.20;1.00
30865;DHT22;17574;49.418;11.038;2023-05-10T14:34:46;22.20;1.00
30865;DHT22;17574;49.418;11.038;2023-05-10T14:37:13;22.10;1.00
30865;DHT22;17574;49.418;11.038;2023-05-10T14:39:39;22.10;1.00
30865;DHT22;17574;49.418;11.038;2023-05-10T14:42:06;22.10;1.00
30865;DHT22;17574;49.418;11.038;2023-05-10T14:44:33;22.10;1.00
30865;DHT22;17574;49.418;11.038;2023-05-10T14:46:59;21.90;1.00
30865;DHT22;17574;49.418;11.038;2023-05-10T14:49:26;21.90;1.00
30865;DHT22;17574;49.418;11.038;2023-05-10T14:51:53;22.10;1.00
30865;DHT22;17574;49.418;11.038;2023-05-10T14:54:20;22.00;1.00
30865;DHT22;17574;49.418;11.038;2023-05-10T14:56:46;22.00;1.00
30865;DHT22;17574;49.418;11.038;2023-05-10T14:59:16;22.00;1.00
30865;DHT22;17574;49.418;11.038;2023-05-10T15:01:43;21.90;1.00
30865;DHT22;17574;49.418;11.038;2023-05-10T15:04:10;22.10;1.00
30865;DHT22;17574;49.418;11.038;2023-05-10T15:06:37;22.10;1.00
30865;DHT22;17574;49.418;11.038;2023-05-10T15:09:03;22.20;1.00
30865;DHT22;17574;49.418;11.038;2023-05-10T15:11:30;22.00;1.00
30865;DHT22;17574;49.418;11.038;2023-05-10T15:13:57;22.00;1.00
30865;DHT22;17574;49.418;11.038;2023-05-10T15:16:23;21.80;1.00
30865;DHT22;17574;49.418;11.038;2023-05-10T15:18:50;21.60;1.00
30865;DHT22;17574;49.418;11.038;2023-05-10T15:21:17;21.50;1.00
30865;DHT22;17574;49.418;11.038;2023-05-10T15:23:44;21.40;1.00
30865;DHT22;17574;49.418;11.038;2023-05-10T15:26:10;20.50;1.00
30865;DHT22;17574;49.418;11.038;2023-05-10T15:28:37;21.30;1.00
30865;DHT22;17574;49.418;11.038;2023-05-10T15:31:03;21.20;1.00
30865;DHT22;17574;49.418;11.038;2023-05-10T15:33:30;21.20;1.00
30865;DHT22;17574;49.418;11.038;2023-05-10T15:35:57;21.10;1.00
30865;DHT22;17574;49.418;11.038;2023-05-10T15:38:23;20.90;1.00
30865;DHT22;17574;49.418;11.038;2023-05-10T15:40:50;20.80;1.00
30865;DHT22;17574;49.418;11.038;2023-05-10T15:43:17;20.60;1.00
30865;DHT22;17574;49.418;11.038;2023-05-10T15:45:43;20.70;1.00